Stena Germanica — SKPZ — position and weather

sailwx.info

Track history (hours):
 
Tides and Currents Weather Stations Pressure Air Temp Water Temp Dewpoint Dewpoint Depression Visibility Wind Speed Wind Dir Waves Ship Positions

Stena Germanica

Last reported at 2017-Jun-22 13:31 UTC. Time now 2017-Jun-22 14:25 UTC.
Position N 55°05' E 018°13'.

Length 176 m; draft 6.8 m.

Type: Passenger vessel. MMSI: 265292000.

Date/timePositionNaut miles runAvg speedWind from/ knotsBaromVisibWave heightAir tempDewpointWater temp
2017-Jun-22 13:31N 55°05' E 018°13'816.9
2017-Jun-22 13:01N 55°10' E 018°01'1416.8
2017-Jun-22 12:12N 55°17' E 017°41'817.0
2017-Jun-22 11:43N 55°22' E 017°28'817.1
2017-Jun-22 11:13N 55°27' E 017°16'1017.0
2017-Jun-22 10:37N 55°32' E 017°01'316.9
2017-Jun-22 10:27N 55°34' E 016°57'716.9
2017-Jun-22 10:00N 55°38' E 016°46'917.1
2017-Jun-22 09:30N 55°42' E 016°33'917.1
2017-Jun-22 09:01N 55°47' E 016°20'917.4
2017-Jun-22 08:31N 55°51' E 016°07'917.4
2017-Jun-22 08:01N 55°57' E 015°54'917.0
2017-Jun-22 07:30N 56°01' E 015°42'713.5
2017-Jun-22 07:01N 56°07' E 015°35'3 6.6
2017-Jun-22 06:29N 56°10' E 015°38'0 0.0
2017-Jun-22 05:59N 56°10' E 015°38'0 0.0
2017-Jun-22 05:29N 56°10' E 015°38'0 0.0
2017-Jun-22 05:00N 56°10' E 015°38'4 8.4
2017-Jun-22 04:30N 56°06' E 015°34'714.9
2017-Jun-22 04:00N 56°01' E 015°43'816.9
2017-Jun-22 03:30N 55°56' E 015°56'917.5
2017-Jun-22 03:00N 55°51' E 016°09'917.5
2017-Jun-22 02:30N 55°47' E 016°22'917.5
2017-Jun-22 02:00N 55°42' E 016°35'917.7
2017-Jun-22 01:30N 55°37' E 016°48'917.6
2017-Jun-22 01:00N 55°32' E 017°01'1317.6
2017-Jun-22 00:15N 55°24' E 017°20'517.6
2017-Jun-22 00:00N 55°22' E 017°27'1017.9
2017-Jun-21 23:27N 55°16' E 017°41'818.1
2017-Jun-21 23:00N 55°12' E 017°53'1118.1
2017-Jun-21 22:25N 55°06' E 018°09'717.8
2017-Jun-21 22:00N 55°02' E 018°19'917.2
2017-Jun-21 21:30N 54°58' E 018°32'816.4
2017-Jun-21 21:00N 54°52' E 018°42'816.7
2017-Jun-21 20:30N 54°45' E 018°51'815.2
2017-Jun-21 20:00N 54°38' E 018°57'816.6
2017-Jun-21 19:31N 54°32' E 018°48'714.3
2017-Jun-21 19:01N 54°32' E 018°36'3 6.6
2017-Jun-21 18:31N 54°33' E 018°30'0 0.0
2017-Jun-21 18:00N 54°33' E 018°30'0 0.0
2017-Jun-21 17:30N 54°33' E 018°30'0 0.0
2017-Jun-21 17:00N 54°33' E 018°30'1 3.0
2017-Jun-21 16:30N 54°32' E 018°33'612.5
2017-Jun-21 16:01N 54°32' E 018°43'715.0
2017-Jun-21 15:31N 54°37' E 018°54'714.8
2017-Jun-21 15:01N 54°44' E 018°52'816.5
2017-Jun-21 14:31N 54°50' E 018°43'1716.8
2017-Jun-21 13:30N 55°02' E 018°22'916.9
2017-Jun-21 12:59N 55°07' E 018°09'3617.0
2017-Jun-21 10:52N 55°26' E 017°16'617.0
2017-Jun-21 10:30N 55°30' E 017°07'816.9
2017-Jun-21 10:00N 55°34' E 016°54'917.1
2017-Jun-21 09:31N 55°39' E 016°42'917.4
2017-Jun-21 09:01N 55°44' E 016°30'917.7
2017-Jun-21 08:30N 55°49' E 016°16'917.7
2017-Jun-21 08:00N 55°54' E 016°03'917.5
2017-Jun-21 07:31N 55°58' E 015°50'917.8
2017-Jun-21 07:00N 56°03' E 015°36'612.7
2017-Jun-21 06:31N 56°09' E 015°37'1 1.4
2017-Jun-21 06:00N 56°10' E 015°38'0 0.0
2017-Jun-21 05:30N 56°10' E 015°38'0 0.0
2017-Jun-21 05:01N 56°10' E 015°38'4 8.4
2017-Jun-21 04:31N 56°06' E 015°34'815.2
2017-Jun-21 04:00N 56°01' E 015°44'816.9
2017-Jun-21 03:31N 55°56' E 015°56'917.6
2017-Jun-21 03:00N 55°51' E 016°09'917.5
2017-Jun-21 02:30N 55°46' E 016°22'917.6
2017-Jun-21 02:00N 55°41' E 016°35'917.8
2017-Jun-21 01:30N 55°36' E 016°49'1017.5
2017-Jun-21 00:56N 55°31' E 017°03'4517.8
2017-Jun-20 22:24N 55°06' E 018°10'717.7
2017-Jun-20 22:00N 55°02' E 018°20'917.7
2017-Jun-20 21:31N 54°57' E 018°33'917.6
2017-Jun-20 21:00N 54°51' E 018°43'917.5
2017-Jun-20 20:31N 54°44' E 018°53'714.5
2017-Jun-20 20:00N 54°37' E 018°55'816.0
2017-Jun-20 19:31N 54°32' E 018°45'713.8
2017-Jun-20 19:01N 54°32' E 018°33'2 3.8
2017-Jun-20 18:30N 54°33' E 018°30'0 0.0
2017-Jun-20 18:00N 54°33' E 018°30'0 0.0
2017-Jun-20 17:30N 54°33' E 018°30'0 0.0
2017-Jun-20 17:00N 54°33' E 018°30'1 2.3
2017-Jun-20 16:31N 54°32' E 018°32'611.1
2017-Jun-20 16:00N 54°32' E 018°42'816.3
2017-Jun-20 15:30N 54°36' E 018°54'816.4
2017-Jun-20 15:00N 54°45' E 018°52'918.7
2017-Jun-20 14:30N 54°52' E 018°41'1818.3
2017-Jun-20 13:30N 55°04' E 018°17'918.4
2017-Jun-20 13:00N 55°09' E 018°03'3518.8
2017-Jun-20 11:08N 55°28' E 017°12'418.6
2017-Jun-20 10:56N 55°30' E 017°06'818.7
2017-Jun-20 10:30N 55°34' E 016°55'918.9
2017-Jun-20 10:00N 55°39' E 016°41'919.0
2017-Jun-20 09:30N 55°45' E 016°27'918.9
2017-Jun-20 09:00N 55°50' E 016°13'918.7
2017-Jun-20 08:30N 55°55' E 015°59'918.5
2017-Jun-20 08:00N 55°60' E 015°45'816.5
2017-Jun-20 07:30N 56°06' E 015°34'5 9.4
2017-Jun-20 07:01N 56°10' E 015°38'0 0.0
2017-Jun-20 06:30N 56°10' E 015°38'0 0.0
2017-Jun-20 06:00N 56°10' E 015°38'0 0.0
2017-Jun-20 05:30N 56°10' E 015°38'0 0.0
2017-Jun-20 05:00N 56°10' E 015°38'5 9.5
2017-Jun-20 04:30N 56°06' E 015°34'713.0
2017-Jun-20 04:00N 56°01' E 015°42'713.9
2017-Jun-20 03:30N 55°57' E 015°53'714.3
2017-Jun-20 03:00N 55°53' E 016°03'714.1
2017-Jun-20 02:30N 55°49' E 016°14'714.6
2017-Jun-20 02:00N 55°45' E 016°25'714.7
2017-Jun-20 01:30N 55°41' E 016°36'714.6
2017-Jun-20 01:00N 55°37' E 016°46'814.5
2017-Jun-20 00:29N 55°33' E 016°58'914.5
2017-Jun-19 23:51N 55°28' E 017°11'514.6
2017-Jun-19 23:30N 55°25' E 017°19'814.8
2017-Jun-19 23:00N 55°21' E 017°30'815.1
2017-Jun-19 22:29N 55°17' E 017°41'714.9
2017-Jun-19 22:00N 55°13' E 017°52'714.8
2017-Jun-19 21:30N 55°09' E 018°02'814.9
2017-Jun-19 21:00N 55°05' E 018°13'714.8
2017-Jun-19 20:30N 55°01' E 018°24'714.6
2017-Jun-19 20:00N 54°57' E 018°34'714.3
2017-Jun-19 19:30N 54°51' E 018°42'714.5
2017-Jun-19 19:00N 54°46' E 018°51'714.3
2017-Jun-19 18:30N 54°40' E 018°58'714.9
2017-Jun-19 18:00N 54°33' E 018°51'713.9
2017-Jun-19 17:30N 54°32' E 018°39'5 9.5
2017-Jun-19 17:00N 54°32' E 018°31'1 1.2
2017-Jun-19 16:30N 54°33' E 018°30'0 0.0
2017-Jun-19 16:00N 54°33' E 018°30'0 0.0
2017-Jun-19 15:30N 54°33' E 018°30'0 0.0
2017-Jun-19 15:00N 54°33' E 018°30'0 0.0
2017-Jun-19 14:30N 54°33' E 018°30'0 0.0
2017-Jun-19 13:30N 54°33' E 018°30'0 0.0
2017-Jun-19 13:00N 54°33' E 018°30'0 0.0
2017-Jun-19 12:30N 54°33' E 018°30'0 0.0
2017-Jun-19 12:00N 54°33' E 018°30'0 0.0
2017-Jun-19 11:30N 54°33' E 018°30'0 0.0
2017-Jun-19 11:00N 54°33' E 018°30'0 0.0
2017-Jun-19 10:30N 54°33' E 018°30'0 0.0
2017-Jun-19 10:00N 54°33' E 018°30'0 0.0
2017-Jun-19 09:30N 54°33' E 018°30'0 0.0
2017-Jun-19 09:00N 54°33' E 018°30'0 0.0
2017-Jun-19 08:30N 54°33' E 018°30'0 0.0
2017-Jun-19 08:00N 54°33' E 018°30'0 0.0
2017-Jun-19 07:30N 54°33' E 018°30'0 0.0
2017-Jun-19 07:00N 54°33' E 018°30'2 3.5
2017-Jun-19 06:30N 54°32' E 018°33'611.5
2017-Jun-19 06:00N 54°32' E 018°43'713.1
2017-Jun-19 05:30N 54°36' E 018°53'713.3
2017-Jun-19 05:00N 54°42' E 018°54'714.7
2017-Jun-19 04:30N 54°48' E 018°46'714.7
2017-Jun-19 04:00N 54°54' E 018°38'714.9
2017-Jun-19 03:30N 54°59' E 018°29'1115.1
2017-Jun-19 02:47N 55°05' E 018°13'515.2
2017-Jun-19 02:29N 55°08' E 018°07'5914.7
2017-Jun-18 22:29N 55°40' E 016°40'715.0
2017-Jun-18 22:00N 55°44' E 016°30'815.2
2017-Jun-18 21:30N 55°48' E 016°18'815.1
2017-Jun-18 21:00N 55°52' E 016°07'815.4
2017-Jun-18 20:30N 55°56' E 015°55'815.5
2017-Jun-18 20:00N 56°00' E 015°44'714.5
2017-Jun-18 19:30N 56°05' E 015°34'510.3
2017-Jun-18 19:01N 56°10' E 015°38'0 0.4
2017-Jun-18 18:28N 56°10' E 015°38'0 0.0
2017-Jun-18 18:00N 56°10' E 015°38'4 8.1
2017-Jun-18 17:31N 56°06' E 015°35'713.8
2017-Jun-18 17:00N 56°01' E 015°42'815.4
2017-Jun-18 16:31N 55°57' E 015°54'815.7
2017-Jun-18 16:01N 55°52' E 016°06'816.1
2017-Jun-18 15:31N 55°48' E 016°18'816.1
2017-Jun-18 15:01N 55°44' E 016°29'816.3
2017-Jun-18 14:31N 55°39' E 016°42'4016.0
2017-Jun-18 12:01N 55°18' E 017°41'1816.5
2017-Jun-18 10:56N 55°08' E 018°08'716.6
2017-Jun-18 10:30N 55°04' E 018°18'816.5
2017-Jun-18 10:01N 54°59' E 018°30'816.4
2017-Jun-18 09:31N 54°53' E 018°39'816.3
2017-Jun-18 09:01N 54°47' E 018°49'816.3
2017-Jun-18 08:31N 54°41' E 018°58'816.9
2017-Jun-18 08:01N 54°34' E 018°52'714.6
2017-Jun-18 07:31N 54°32' E 018°40'5 9.9
2017-Jun-18 07:00N 54°32' E 018°31'1 1.0
2017-Jun-18 06:30N 54°33' E 018°30'0 0.0
2017-Jun-18 06:00N 54°33' E 018°30'0 0.0
2017-Jun-18 05:30N 54°33' E 018°30'1 2.8
2017-Jun-18 05:00N 54°32' E 018°32'510.6
2017-Jun-18 04:30N 54°32' E 018°42'815.6
2017-Jun-18 04:00N 54°36' E 018°53'815.5
2017-Jun-18 03:30N 54°44' E 018°53'917.5
2017-Jun-18 03:00N 54°51' E 018°43'917.7
2017-Jun-18 02:30N 54°57' E 018°33'917.8
2017-Jun-18 02:00N 55°02' E 018°20'917.9
2017-Jun-18 01:30N 55°08' E 018°07'917.4
2017-Jun-18 01:00N 55°13' E 017°55'917.4
2017-Jun-18 00:30N 55°17' E 017°42'917.5
2017-Jun-18 00:00N 55°22' E 017°29'917.4
2017-Jun-17 23:30N 55°26' E 017°16'917.3
2017-Jun-17 23:00N 55°31' E 017°03'917.1
2017-Jun-17 22:30N 55°36' E 016°50'917.5
2017-Jun-17 22:00N 55°41' E 016°38'917.6
2017-Jun-17 21:30N 55°45' E 016°25'917.5
2017-Jun-17 21:00N 55°50' E 016°12'917.5
2017-Jun-17 20:30N 55°55' E 015°59'917.8
2017-Jun-17 20:00N 55°60' E 015°45'816.1
2017-Jun-17 19:30N 56°05' E 015°34'510.7
2017-Jun-17 19:01N 56°10' E 015°38'0 0.2
2017-Jun-17 18:30N 56°10' E 015°38'0 0.0
2017-Jun-17 18:00N 56°10' E 015°38'0 0.0
2017-Jun-17 17:30N 56°10' E 015°38'4 8.5
2017-Jun-17 17:00N 56°06' E 015°34'714.1
2017-Jun-17 16:30N 56°01' E 015°43'816.0
2017-Jun-17 16:00N 55°57' E 015°55'816.7
2017-Jun-17 15:30N 55°52' E 016°07'816.9
2017-Jun-17 15:00N 55°47' E 016°20'1717.0
2017-Jun-17 14:00N 55°38' E 016°45'916.9
2017-Jun-17 13:30N 55°33' E 016°58'916.8
2017-Jun-17 12:58N 55°28' E 017°11'4116.8
2017-Jun-17 10:33N 55°06' E 018°10'117.4
2017-Jun-17 10:30N 55°05' E 018°11'917.3
2017-Jun-17 10:00N 55°01' E 018°24'816.9
2017-Jun-17 09:30N 54°56' E 018°36'917.2
2017-Jun-17 09:00N 54°49' E 018°46'917.2
2017-Jun-17 08:30N 54°43' E 018°56'815.2
2017-Jun-17 08:00N 54°35' E 018°54'815.6
2017-Jun-17 07:30N 54°32' E 018°42'611.6
2017-Jun-17 07:00N 54°32' E 018°32'1 2.1
2017-Jun-17 06:30N 54°33' E 018°30'0 0.0
2017-Jun-17 06:00N 54°33' E 018°30'0 0.0
2017-Jun-17 05:30N 54°33' E 018°30'1 2.0
2017-Jun-17 05:00N 54°32' E 018°32'510.3
2017-Jun-17 04:30N 54°32' E 018°41'612.6
2017-Jun-17 04:00N 54°35' E 018°51'713.3
2017-Jun-17 03:30N 54°40' E 018°56'714.8
2017-Jun-17 03:00N 54°47' E 018°49'815.1
2017-Jun-17 02:30N 54°52' E 018°40'815.3
2017-Jun-17 02:00N 54°58' E 018°31'815.2
2017-Jun-17 01:30N 55°02' E 018°20'815.1
2017-Jun-17 01:00N 55°07' E 018°09'714.9
2017-Jun-17 00:30N 55°11' E 017°58'4814.9
2017-Jun-16 21:19N 55°37' E 016°48'515.2
2017-Jun-16 21:00N 55°39' E 016°42'815.2
2017-Jun-16 20:30N 55°43' E 016°30'815.7
2017-Jun-16 20:00N 55°48' E 016°19'815.5
2017-Jun-16 19:30N 55°52' E 016°07'815.5
2017-Jun-16 19:00N 55°56' E 015°55'815.3
2017-Jun-16 18:30N 56°00' E 015°44'713.9
2017-Jun-16 18:00N 56°04' E 015°34'611.4
2017-Jun-16 17:30N 56°10' E 015°38'0 0.4
2017-Jun-16 16:58N 56°10' E 015°38'0 0.0
2017-Jun-16 16:28N 56°10' E 015°38'0 0.0
2017-Jun-16 15:58N 56°10' E 015°38'0 0.0
2017-Jun-16 15:28N 56°10' E 015°38'0 0.0
2017-Jun-16 14:58N 56°10' E 015°38'0 0.0
2017-Jun-16 13:58N 56°10' E 015°38'0 0.0
2017-Jun-16 13:28N 56°10' E 015°38'0 0.0
2017-Jun-16 12:58N 56°10' E 015°38'0 0.0
2017-Jun-16 12:28N 56°10' E 015°38'0 0.0
2017-Jun-16 11:58N 56°10' E 015°38'0 0.0
2017-Jun-16 11:28N 56°10' E 015°38'0 0.0
2017-Jun-16 10:58N 56°10' E 015°38'0 0.0
2017-Jun-16 10:28N 56°10' E 015°38'0 0.0
2017-Jun-16 09:58N 56°10' E 015°38'0 0.0
2017-Jun-16 09:28N 56°10' E 015°38'0 0.0
2017-Jun-16 08:58N 56°10' E 015°38'0 0.0
2017-Jun-16 08:28N 56°10' E 015°38'0 0.0
2017-Jun-16 07:58N 56°10' E 015°38'0 0.0
2017-Jun-16 07:28N 56°10' E 015°38'0 0.0
2017-Jun-16 07:00N 56°10' E 015°38'4 8.2
2017-Jun-16 06:30N 56°06' E 015°35'612.0
2017-Jun-16 06:00N 56°01' E 015°41'713.1
2017-Jun-16 05:30N 55°58' E 015°50'714.2
2017-Jun-16 05:00N 55°54' E 016°01'714.3
2017-Jun-16 04:30N 55°50' E 016°12'714.2
2017-Jun-16 04:00N 55°46' E 016°22'714.2
2017-Jun-16 03:30N 55°42' E 016°33'714.0
2017-Jun-16 03:00N 55°38' E 016°43'713.4
2017-Jun-16 02:30N 55°34' E 016°53'713.4
2017-Jun-16 01:59N 55°31' E 017°03'713.8
2017-Jun-16 01:30N 55°27' E 017°13'914.3
2017-Jun-16 00:52N 55°22' E 017°27'714.5
2017-Jun-16 00:22N 55°18' E 017°36'614.3
2017-Jun-15 23:57N 55°15' E 017°46'1013.9
2017-Jun-15 23:13N 55°10' E 018°01'414.3
2017-Jun-15 22:55N 55°07' E 018°07'814.2
2017-Jun-15 22:19N 55°02' E 018°20'414.0
2017-Jun-15 22:01N 54°60' E 018°26'714.0
2017-Jun-15 21:31N 54°56' E 018°35'714.5
2017-Jun-15 21:01N 54°50' E 018°44'714.5
2017-Jun-15 20:31N 54°45' E 018°52'713.5
2017-Jun-15 20:01N 54°38' E 018°56'714.0
2017-Jun-15 19:30N 54°33' E 018°50'714.0
2017-Jun-15 19:00N 54°32' E 018°38'4 8.4
2017-Jun-15 18:30N 54°33' E 018°31'0 0.5
2017-Jun-15 17:59N 54°33' E 018°30'0 0.0
2017-Jun-15 17:30N 54°33' E 018°30'2 3.7
2017-Jun-15 17:00N 54°32' E 018°33'612.7
2017-Jun-15 16:30N 54°32' E 018°44'714.5
2017-Jun-15 16:00N 54°37' E 018°53'714.3
2017-Jun-15 15:30N 54°44' E 018°53'816.0
2017-Jun-15 15:00N 54°50' E 018°44'816.4
2017-Jun-15 14:30N 54°56' E 018°34'1717.2
2017-Jun-15 13:30N 55°07' E 018°11'1017.2
2017-Jun-15 12:55N 55°13' E 017°56'3417.1
2017-Jun-15 10:55N 55°31' E 017°05'715.9
2017-Jun-15 10:30N 55°34' E 016°55'816.0
2017-Jun-15 10:00N 55°38' E 016°43'816.1
2017-Jun-15 09:30N 55°42' E 016°30'816.1
2017-Jun-15 09:00N 55°46' E 016°18'816.2
2017-Jun-15 08:30N 55°50' E 016°05'815.9
2017-Jun-15 08:00N 55°55' E 015°55'815.7
2017-Jun-15 07:30N 56°00' E 015°44'714.9
2017-Jun-15 07:00N 56°05' E 015°34'510.0
2017-Jun-15 06:30N 56°10' E 015°37'0 0.5
2017-Jun-15 06:00N 56°10' E 015°38'0 0.0
2017-Jun-15 05:30N 56°10' E 015°38'0 0.0
2017-Jun-15 05:00N 56°10' E 015°38'3 6.5
2017-Jun-15 04:30N 56°07' E 015°35'714.3
2017-Jun-15 04:01N 56°01' E 015°42'917.5
2017-Jun-15 03:30N 55°56' E 015°55'917.9
2017-Jun-15 03:01N 55°51' E 016°08'917.8
2017-Jun-15 02:30N 55°46' E 016°21'917.7
2017-Jun-15 02:01N 55°41' E 016°34'917.5
2017-Jun-15 01:30N 55°36' E 016°47'917.4
2017-Jun-15 01:00N 55°32' E 017°00'917.6
2017-Jun-15 00:30N 55°27' E 017°14'1017.9
2017-Jun-14 23:57N 55°22' E 017°28'1018.0
2017-Jun-14 23:24N 55°16' E 017°43'718.0
2017-Jun-14 23:00N 55°13' E 017°53'917.8
2017-Jun-14 22:30N 55°08' E 018°07'918.0
2017-Jun-14 22:01N 55°03' E 018°20'917.7
2017-Jun-14 21:31N 54°58' E 018°33'917.2
2017-Jun-14 21:00N 54°52' E 018°44'917.5
2017-Jun-14 20:30N 54°45' E 018°51'815.1
2017-Jun-14 20:01N 54°38' E 018°56'816.2
2017-Jun-14 19:31N 54°32' E 018°47'714.5
2017-Jun-14 19:01N 54°32' E 018°34'2 4.3
2017-Jun-14 18:28N 54°33' E 018°30'0 0.0
2017-Jun-14 17:58N 54°33' E 018°30'0 0.0
2017-Jun-14 17:28N 54°33' E 018°30'0 0.0
2017-Jun-14 17:00N 54°33' E 018°30'2 3.1
2017-Jun-14 16:30N 54°32' E 018°33'612.8
2017-Jun-14 16:00N 54°32' E 018°44'815.6
2017-Jun-14 15:30N 54°37' E 018°54'815.4
2017-Jun-14 15:00N 54°45' E 018°50'1817.9
2017-Jun-14 14:00N 54°59' E 018°31'918.1
2017-Jun-14 13:30N 55°04' E 018°17'917.8
2017-Jun-14 12:59N 55°09' E 018°04'2117.8
2017-Jun-14 11:48N 55°21' E 017°33'517.5
2017-Jun-14 11:30N 55°23' E 017°26'917.2
2017-Jun-14 11:00N 55°28' E 017°13'816.3
2017-Jun-14 10:30N 55°32' E 017°01'816.2
2017-Jun-14 10:00N 55°36' E 016°49'816.7
2017-Jun-14 09:30N 55°41' E 016°36'816.9
2017-Jun-14 09:00N 55°45' E 016°23'917.0
2017-Jun-14 08:30N 55°49' E 016°09'816.7
2017-Jun-14 08:00N 55°54' E 015°58'816.6
2017-Jun-14 07:30N 55°59' E 015°47'816.4
2017-Jun-14 07:00N 56°04' E 015°34'612.2
2017-Jun-14 06:31N 56°10' E 015°37'0 0.6
2017-Jun-14 06:00N 56°10' E 015°38'0 0.0
2017-Jun-14 05:30N 56°10' E 015°38'0 0.0
2017-Jun-14 05:00N 56°10' E 015°38'4 9.0
2017-Jun-14 04:31N 56°06' E 015°34'816.0
2017-Jun-14 04:01N 56°00' E 015°44'917.5
2017-Jun-14 03:31N 55°55' E 015°57'917.6
2017-Jun-14 03:00N 55°50' E 016°10'917.6
2017-Jun-14 02:30N 55°44' E 016°22'917.7
2017-Jun-14 02:00N 55°40' E 016°36'917.8
2017-Jun-14 01:30N 55°36' E 016°50'917.6
2017-Jun-14 01:00N 55°31' E 017°03'917.6
2017-Jun-14 00:30N 55°27' E 017°16'917.8
2017-Jun-14 00:00N 55°22' E 017°29'917.8
2017-Jun-13 23:30N 55°17' E 017°42'917.7
2017-Jun-13 23:01N 55°12' E 017°55'1117.7
2017-Jun-13 22:25N 55°06' E 018°10'718.0
2017-Jun-13 22:00N 55°02' E 018°21'917.5
2017-Jun-13 21:30N 54°57' E 018°33'917.2
2017-Jun-13 21:01N 54°51' E 018°44'917.4
2017-Jun-13 20:31N 54°45' E 018°55'714.7
2017-Jun-13 20:01N 54°38' E 018°56'815.3
2017-Jun-13 19:30N 54°32' E 018°48'714.5
2017-Jun-13 19:01N 54°32' E 018°36'3 6.2
2017-Jun-13 18:31N 54°33' E 018°30'0 0.0
2017-Jun-13 17:58N 54°33' E 018°30'0 0.0
2017-Jun-13 17:28N 54°33' E 018°30'0 0.0
2017-Jun-13 17:01N 54°33' E 018°30'2 3.4
2017-Jun-13 16:31N 54°32' E 018°33'713.1
2017-Jun-13 16:00N 54°32' E 018°44'917.0
2017-Jun-13 15:30N 54°38' E 018°55'816.1
2017-Jun-13 15:00N 54°46' E 018°50'1918.7
2017-Jun-13 14:00N 55°00' E 018°29'1118.6
2017-Jun-13 13:24N 55°06' E 018°12'5418.2
2017-Jun-13 10:26N 55°35' E 016°52'818.2
2017-Jun-13 10:00N 55°40' E 016°40'918.3
2017-Jun-13 09:30N 55°45' E 016°27'918.1
2017-Jun-13 09:00N 55°50' E 016°14'917.8
2017-Jun-13 08:30N 55°55' E 016°01'917.7
2017-Jun-13 08:00N 55°59' E 015°47'917.1
2017-Jun-13 07:30N 56°04' E 015°34'611.5
2017-Jun-13 07:01N 56°10' E 015°38'0 0.7
2017-Jun-13 06:30N 56°10' E 015°38'0 0.0
2017-Jun-13 05:57N 56°10' E 015°38'0 0.0
2017-Jun-13 05:30N 56°10' E 015°38'0 0.0
2017-Jun-13 05:00N 56°10' E 015°38'5 9.0
2017-Jun-13 04:30N 56°06' E 015°34'10914.4
2017-Jun-12 20:58N 55°04' E 018°14'614.1
2017-Jun-12 20:30N 55°01' E 018°23'714.4
2017-Jun-12 20:00N 54°57' E 018°34'714.8
2017-Jun-12 19:31N 54°52' E 018°42'714.7
2017-Jun-12 19:00N 54°46' E 018°51'714.6
2017-Jun-12 18:31N 54°40' E 018°58'815.6
2017-Jun-12 18:00N 54°33' E 018°52'713.1
2017-Jun-12 17:30N 54°32' E 018°41'611.2
2017-Jun-12 17:01N 54°32' E 018°31'1 1.0
2017-Jun-12 16:28N 54°33' E 018°30'0 0.0
2017-Jun-12 15:58N 54°33' E 018°30'0 0.0
2017-Jun-12 15:28N 54°33' E 018°30'0 0.0
2017-Jun-12 14:58N 54°33' E 018°30'0 0.0
2017-Jun-12 14:28N 54°33' E 018°30'  
Track history (hours):
 
Tides and Currents Weather Stations Pressure Air Temp Water Temp Dewpoint Dewpoint Depression Visibility Wind Speed Wind Dir Waves Ship Positions

Stena Germanica

Last reported at 2017-Jun-22 13:31 UTC. Time now 2017-Jun-22 14:25 UTC.
Position N 55°05' E 018°13'.

Length 176 m; draft 6.8 m.

Type: Passenger vessel. MMSI: 265292000.

Date/timePositionNaut miles runAvg speedWind from/ knotsBaromVisibWave heightAir tempDewpointWater temp
2017-Jun-22 13:31N 55°05' E 018°13'816.9
2017-Jun-22 13:01N 55°10' E 018°01'1416.8
2017-Jun-22 12:12N 55°17' E 017°41'817.0
2017-Jun-22 11:43N 55°22' E 017°28'817.1
2017-Jun-22 11:13N 55°27' E 017°16'1017.0
2017-Jun-22 10:37N 55°32' E 017°01'316.9
2017-Jun-22 10:27N 55°34' E 016°57'716.9
2017-Jun-22 10:00N 55°38' E 016°46'917.1
2017-Jun-22 09:30N 55°42' E 016°33'917.1
2017-Jun-22 09:01N 55°47' E 016°20'917.4
2017-Jun-22 08:31N 55°51' E 016°07'917.4
2017-Jun-22 08:01N 55°57' E 015°54'917.0
2017-Jun-22 07:30N 56°01' E 015°42'713.5
2017-Jun-22 07:01N 56°07' E 015°35'3 6.6
2017-Jun-22 06:29N 56°10' E 015°38'0 0.0
2017-Jun-22 05:59N 56°10' E 015°38'0 0.0
2017-Jun-22 05:29N 56°10' E 015°38'0 0.0
2017-Jun-22 05:00N 56°10' E 015°38'4 8.4
2017-Jun-22 04:30N 56°06' E 015°34'714.9
2017-Jun-22 04:00N 56°01' E 015°43'816.9
2017-Jun-22 03:30N 55°56' E 015°56'917.5
2017-Jun-22 03:00N 55°51' E 016°09'917.5
2017-Jun-22 02:30N 55°47' E 016°22'917.5
2017-Jun-22 02:00N 55°42' E 016°35'917.7
2017-Jun-22 01:30N 55°37' E 016°48'917.6
2017-Jun-22 01:00N 55°32' E 017°01'1317.6
2017-Jun-22 00:15N 55°24' E 017°20'517.6
2017-Jun-22 00:00N 55°22' E 017°27'1017.9
2017-Jun-21 23:27N 55°16' E 017°41'818.1
2017-Jun-21 23:00N 55°12' E 017°53'1118.1
2017-Jun-21 22:25N 55°06' E 018°09'717.8
2017-Jun-21 22:00N 55°02' E 018°19'917.2
2017-Jun-21 21:30N 54°58' E 018°32'816.4
2017-Jun-21 21:00N 54°52' E 018°42'816.7
2017-Jun-21 20:30N 54°45' E 018°51'815.2
2017-Jun-21 20:00N 54°38' E 018°57'816.6
2017-Jun-21 19:31N 54°32' E 018°48'714.3
2017-Jun-21 19:01N 54°32' E 018°36'3 6.6
2017-Jun-21 18:31N 54°33' E 018°30'0 0.0
2017-Jun-21 18:00N 54°33' E 018°30'0 0.0
2017-Jun-21 17:30N 54°33' E 018°30'0 0.0
2017-Jun-21 17:00N 54°33' E 018°30'1 3.0
2017-Jun-21 16:30N 54°32' E 018°33'612.5
2017-Jun-21 16:01N 54°32' E 018°43'715.0
2017-Jun-21 15:31N 54°37' E 018°54'714.8
2017-Jun-21 15:01N 54°44' E 018°52'816.5
2017-Jun-21 14:31N 54°50' E 018°43'1716.8
2017-Jun-21 13:30N 55°02' E 018°22'916.9
2017-Jun-21 12:59N 55°07' E 018°09'3617.0
2017-Jun-21 10:52N 55°26' E 017°16'617.0
2017-Jun-21 10:30N 55°30' E 017°07'816.9
2017-Jun-21 10:00N 55°34' E 016°54'917.1
2017-Jun-21 09:31N 55°39' E 016°42'917.4
2017-Jun-21 09:01N 55°44' E 016°30'917.7
2017-Jun-21 08:30N 55°49' E 016°16'917.7
2017-Jun-21 08:00N 55°54' E 016°03'917.5
2017-Jun-21 07:31N 55°58' E 015°50'917.8
2017-Jun-21 07:00N 56°03' E 015°36'612.7
2017-Jun-21 06:31N 56°09' E 015°37'1 1.4
2017-Jun-21 06:00N 56°10' E 015°38'0 0.0
2017-Jun-21 05:30N 56°10' E 015°38'0 0.0
2017-Jun-21 05:01N 56°10' E 015°38'4 8.4
2017-Jun-21 04:31N 56°06' E 015°34'815.2
2017-Jun-21 04:00N 56°01' E 015°44'816.9
2017-Jun-21 03:31N 55°56' E 015°56'917.6
2017-Jun-21 03:00N 55°51' E 016°09'917.5
2017-Jun-21 02:30N 55°46' E 016°22'917.6
2017-Jun-21 02:00N 55°41' E 016°35'917.8
2017-Jun-21 01:30N 55°36' E 016°49'1017.5
2017-Jun-21 00:56N 55°31' E 017°03'4517.8
2017-Jun-20 22:24N 55°06' E 018°10'717.7
2017-Jun-20 22:00N 55°02' E 018°20'917.7
2017-Jun-20 21:31N 54°57' E 018°33'917.6
2017-Jun-20 21:00N 54°51' E 018°43'917.5
2017-Jun-20 20:31N 54°44' E 018°53'714.5
2017-Jun-20 20:00N 54°37' E 018°55'816.0
2017-Jun-20 19:31N 54°32' E 018°45'713.8
2017-Jun-20 19:01N 54°32' E 018°33'2 3.8
2017-Jun-20 18:30N 54°33' E 018°30'0 0.0
2017-Jun-20 18:00N 54°33' E 018°30'0 0.0
2017-Jun-20 17:30N 54°33' E 018°30'0 0.0
2017-Jun-20 17:00N 54°33' E 018°30'1 2.3
2017-Jun-20 16:31N 54°32' E 018°32'611.1
2017-Jun-20 16:00N 54°32' E 018°42'816.3
2017-Jun-20 15:30N 54°36' E 018°54'816.4
2017-Jun-20 15:00N 54°45' E 018°52'918.7
2017-Jun-20 14:30N 54°52' E 018°41'1818.3
2017-Jun-20 13:30N 55°04' E 018°17'918.4
2017-Jun-20 13:00N 55°09' E 018°03'3518.8
2017-Jun-20 11:08N 55°28' E 017°12'418.6
2017-Jun-20 10:56N 55°30' E 017°06'818.7
2017-Jun-20 10:30N 55°34' E 016°55'918.9
2017-Jun-20 10:00N 55°39' E 016°41'919.0
2017-Jun-20 09:30N 55°45' E 016°27'918.9
2017-Jun-20 09:00N 55°50' E 016°13'918.7
2017-Jun-20 08:30N 55°55' E 015°59'918.5
2017-Jun-20 08:00N 55°60' E 015°45'816.5
2017-Jun-20 07:30N 56°06' E 015°34'5 9.4
2017-Jun-20 07:01N 56°10' E 015°38'0 0.0
2017-Jun-20 06:30N 56°10' E 015°38'0 0.0
2017-Jun-20 06:00N 56°10' E 015°38'0 0.0
2017-Jun-20 05:30N 56°10' E 015°38'0 0.0
2017-Jun-20 05:00N 56°10' E 015°38'5 9.5
2017-Jun-20 04:30N 56°06' E 015°34'713.0
2017-Jun-20 04:00N 56°01' E 015°42'713.9
2017-Jun-20 03:30N 55°57' E 015°53'714.3
2017-Jun-20 03:00N 55°53' E 016°03'714.1
2017-Jun-20 02:30N 55°49' E 016°14'714.6
2017-Jun-20 02:00N 55°45' E 016°25'714.7
2017-Jun-20 01:30N 55°41' E 016°36'714.6
2017-Jun-20 01:00N 55°37' E 016°46'814.5
2017-Jun-20 00:29N 55°33' E 016°58'914.5
2017-Jun-19 23:51N 55°28' E 017°11'514.6
2017-Jun-19 23:30N 55°25' E 017°19'814.8
2017-Jun-19 23:00N 55°21' E 017°30'815.1
2017-Jun-19 22:29N 55°17' E 017°41'714.9
2017-Jun-19 22:00N 55°13' E 017°52'714.8
2017-Jun-19 21:30N 55°09' E 018°02'814.9
2017-Jun-19 21:00N 55°05' E 018°13'714.8
2017-Jun-19 20:30N 55°01' E 018°24'714.6
2017-Jun-19 20:00N 54°57' E 018°34'714.3
2017-Jun-19 19:30N 54°51' E 018°42'714.5
2017-Jun-19 19:00N 54°46' E 018°51'714.3
2017-Jun-19 18:30N 54°40' E 018°58'714.9
2017-Jun-19 18:00N 54°33' E 018°51'713.9
2017-Jun-19 17:30N 54°32' E 018°39'5 9.5
2017-Jun-19 17:00N 54°32' E 018°31'1 1.2
2017-Jun-19 16:30N 54°33' E 018°30'0 0.0
2017-Jun-19 16:00N 54°33' E 018°30'0 0.0
2017-Jun-19 15:30N 54°33' E 018°30'0 0.0
2017-Jun-19 15:00N 54°33' E 018°30'0 0.0
2017-Jun-19 14:30N 54°33' E 018°30'0 0.0
2017-Jun-19 13:30N 54°33' E 018°30'0 0.0
2017-Jun-19 13:00N 54°33' E 018°30'0 0.0
2017-Jun-19 12:30N 54°33' E 018°30'0 0.0
2017-Jun-19 12:00N 54°33' E 018°30'0 0.0
2017-Jun-19 11:30N 54°33' E 018°30'0 0.0
2017-Jun-19 11:00N 54°33' E 018°30'0 0.0
2017-Jun-19 10:30N 54°33' E 018°30'0 0.0
2017-Jun-19 10:00N 54°33' E 018°30'0 0.0
2017-Jun-19 09:30N 54°33' E 018°30'0 0.0
2017-Jun-19 09:00N 54°33' E 018°30'0 0.0
2017-Jun-19 08:30N 54°33' E 018°30'0 0.0
2017-Jun-19 08:00N 54°33' E 018°30'0 0.0
2017-Jun-19 07:30N 54°33' E 018°30'0 0.0
2017-Jun-19 07:00N 54°33' E 018°30'2 3.5
2017-Jun-19 06:30N 54°32' E 018°33'611.5
2017-Jun-19 06:00N 54°32' E 018°43'713.1
2017-Jun-19 05:30N 54°36' E 018°53'713.3
2017-Jun-19 05:00N 54°42' E 018°54'714.7
2017-Jun-19 04:30N 54°48' E 018°46'714.7
2017-Jun-19 04:00N 54°54' E 018°38'714.9
2017-Jun-19 03:30N 54°59' E 018°29'1115.1
2017-Jun-19 02:47N 55°05' E 018°13'515.2
2017-Jun-19 02:29N 55°08' E 018°07'5914.7
2017-Jun-18 22:29N 55°40' E 016°40'715.0
2017-Jun-18 22:00N 55°44' E 016°30'815.2
2017-Jun-18 21:30N 55°48' E 016°18'815.1
2017-Jun-18 21:00N 55°52' E 016°07'815.4
2017-Jun-18 20:30N 55°56' E 015°55'815.5
2017-Jun-18 20:00N 56°00' E 015°44'714.5
2017-Jun-18 19:30N 56°05' E 015°34'510.3
2017-Jun-18 19:01N 56°10' E 015°38'0 0.4
2017-Jun-18 18:28N 56°10' E 015°38'0 0.0
2017-Jun-18 18:00N 56°10' E 015°38'4 8.1
2017-Jun-18 17:31N 56°06' E 015°35'713.8
2017-Jun-18 17:00N 56°01' E 015°42'815.4
2017-Jun-18 16:31N 55°57' E 015°54'815.7
2017-Jun-18 16:01N 55°52' E 016°06'816.1
2017-Jun-18 15:31N 55°48' E 016°18'816.1
2017-Jun-18 15:01N 55°44' E 016°29'816.3
2017-Jun-18 14:31N 55°39' E 016°42'4016.0
2017-Jun-18 12:01N 55°18' E 017°41'1816.5
2017-Jun-18 10:56N 55°08' E 018°08'716.6
2017-Jun-18 10:30N 55°04' E 018°18'816.5
2017-Jun-18 10:01N 54°59' E 018°30'816.4
2017-Jun-18 09:31N 54°53' E 018°39'816.3
2017-Jun-18 09:01N 54°47' E 018°49'816.3
2017-Jun-18 08:31N 54°41' E 018°58'816.9
2017-Jun-18 08:01N 54°34' E 018°52'714.6
2017-Jun-18 07:31N 54°32' E 018°40'5 9.9
2017-Jun-18 07:00N 54°32' E 018°31'1 1.0
2017-Jun-18 06:30N 54°33' E 018°30'0 0.0
2017-Jun-18 06:00N 54°33' E 018°30'0 0.0
2017-Jun-18 05:30N 54°33' E 018°30'1 2.8
2017-Jun-18 05:00N 54°32' E 018°32'510.6
2017-Jun-18 04:30N 54°32' E 018°42'815.6
2017-Jun-18 04:00N 54°36' E 018°53'815.5
2017-Jun-18 03:30N 54°44' E 018°53'917.5
2017-Jun-18 03:00N 54°51' E 018°43'917.7
2017-Jun-18 02:30N 54°57' E 018°33'917.8
2017-Jun-18 02:00N 55°02' E 018°20'917.9
2017-Jun-18 01:30N 55°08' E 018°07'917.4
2017-Jun-18 01:00N 55°13' E 017°55'917.4
2017-Jun-18 00:30N 55°17' E 017°42'917.5
2017-Jun-18 00:00N 55°22' E 017°29'917.4
2017-Jun-17 23:30N 55°26' E 017°16'917.3
2017-Jun-17 23:00N 55°31' E 017°03'917.1
2017-Jun-17 22:30N 55°36' E 016°50'917.5
2017-Jun-17 22:00N 55°41' E 016°38'917.6
2017-Jun-17 21:30N 55°45' E 016°25'917.5
2017-Jun-17 21:00N 55°50' E 016°12'917.5
2017-Jun-17 20:30N 55°55' E 015°59'917.8
2017-Jun-17 20:00N 55°60' E 015°45'816.1
2017-Jun-17 19:30N 56°05' E 015°34'510.7
2017-Jun-17 19:01N 56°10' E 015°38'0 0.2
2017-Jun-17 18:30N 56°10' E 015°38'0 0.0
2017-Jun-17 18:00N 56°10' E 015°38'0 0.0
2017-Jun-17 17:30N 56°10' E 015°38'4 8.5
2017-Jun-17 17:00N 56°06' E 015°34'714.1
2017-Jun-17 16:30N 56°01' E 015°43'816.0
2017-Jun-17 16:00N 55°57' E 015°55'816.7
2017-Jun-17 15:30N 55°52' E 016°07'816.9
2017-Jun-17 15:00N 55°47' E 016°20'1717.0
2017-Jun-17 14:00N 55°38' E 016°45'916.9
2017-Jun-17 13:30N 55°33' E 016°58'916.8
2017-Jun-17 12:58N 55°28' E 017°11'4116.8
2017-Jun-17 10:33N 55°06' E 018°10'117.4
2017-Jun-17 10:30N 55°05' E 018°11'917.3
2017-Jun-17 10:00N 55°01' E 018°24'816.9
2017-Jun-17 09:30N 54°56' E 018°36'917.2
2017-Jun-17 09:00N 54°49' E 018°46'917.2
2017-Jun-17 08:30N 54°43' E 018°56'815.2
2017-Jun-17 08:00N 54°35' E 018°54'815.6
2017-Jun-17 07:30N 54°32' E 018°42'611.6
2017-Jun-17 07:00N 54°32' E 018°32'1 2.1
2017-Jun-17 06:30N 54°33' E 018°30'0 0.0
2017-Jun-17 06:00N 54°33' E 018°30'0 0.0
2017-Jun-17 05:30N 54°33' E 018°30'1 2.0
2017-Jun-17 05:00N 54°32' E 018°32'510.3
2017-Jun-17 04:30N 54°32' E 018°41'612.6
2017-Jun-17 04:00N 54°35' E 018°51'713.3
2017-Jun-17 03:30N 54°40' E 018°56'714.8
2017-Jun-17 03:00N 54°47' E 018°49'815.1
2017-Jun-17 02:30N 54°52' E 018°40'815.3
2017-Jun-17 02:00N 54°58' E 018°31'815.2
2017-Jun-17 01:30N 55°02' E 018°20'815.1
2017-Jun-17 01:00N 55°07' E 018°09'714.9
2017-Jun-17 00:30N 55°11' E 017°58'4814.9
2017-Jun-16 21:19N 55°37' E 016°48'515.2
2017-Jun-16 21:00N 55°39' E 016°42'815.2
2017-Jun-16 20:30N 55°43' E 016°30'815.7
2017-Jun-16 20:00N 55°48' E 016°19'815.5
2017-Jun-16 19:30N 55°52' E 016°07'815.5
2017-Jun-16 19:00N 55°56' E 015°55'815.3
2017-Jun-16 18:30N 56°00' E 015°44'713.9
2017-Jun-16 18:00N 56°04' E 015°34'611.4
2017-Jun-16 17:30N 56°10' E 015°38'0 0.4
2017-Jun-16 16:58N 56°10' E 015°38'0 0.0
2017-Jun-16 16:28N 56°10' E 015°38'0 0.0
2017-Jun-16 15:58N 56°10' E 015°38'0 0.0
2017-Jun-16 15:28N 56°10' E 015°38'0 0.0
2017-Jun-16 14:58N 56°10' E 015°38'0 0.0
2017-Jun-16 13:58N 56°10' E 015°38'0 0.0
2017-Jun-16 13:28N 56°10' E 015°38'0 0.0
2017-Jun-16 12:58N 56°10' E 015°38'0 0.0
2017-Jun-16 12:28N 56°10' E 015°38'0 0.0
2017-Jun-16 11:58N 56°10' E 015°38'0 0.0
2017-Jun-16 11:28N 56°10' E 015°38'0 0.0
2017-Jun-16 10:58N 56°10' E 015°38'0 0.0
2017-Jun-16 10:28N 56°10' E 015°38'0 0.0
2017-Jun-16 09:58N 56°10' E 015°38'0 0.0
2017-Jun-16 09:28N 56°10' E 015°38'0 0.0
2017-Jun-16 08:58N 56°10' E 015°38'0 0.0
2017-Jun-16 08:28N 56°10' E 015°38'0 0.0
2017-Jun-16 07:58N 56°10' E 015°38'0 0.0
2017-Jun-16 07:28N 56°10' E 015°38'0 0.0
2017-Jun-16 07:00N 56°10' E 015°38'4 8.2
2017-Jun-16 06:30N 56°06' E 015°35'612.0
2017-Jun-16 06:00N 56°01' E 015°41'713.1
2017-Jun-16 05:30N 55°58' E 015°50'714.2
2017-Jun-16 05:00N 55°54' E 016°01'714.3
2017-Jun-16 04:30N 55°50' E 016°12'714.2
2017-Jun-16 04:00N 55°46' E 016°22'714.2
2017-Jun-16 03:30N 55°42' E 016°33'714.0
2017-Jun-16 03:00N 55°38' E 016°43'713.4
2017-Jun-16 02:30N 55°34' E 016°53'713.4
2017-Jun-16 01:59N 55°31' E 017°03'713.8
2017-Jun-16 01:30N 55°27' E 017°13'914.3
2017-Jun-16 00:52N 55°22' E 017°27'714.5
2017-Jun-16 00:22N 55°18' E 017°36'614.3
2017-Jun-15 23:57N 55°15' E 017°46'1013.9
2017-Jun-15 23:13N 55°10' E 018°01'414.3
2017-Jun-15 22:55N 55°07' E 018°07'814.2
2017-Jun-15 22:19N 55°02' E 018°20'414.0
2017-Jun-15 22:01N 54°60' E 018°26'714.0
2017-Jun-15 21:31N 54°56' E 018°35'714.5
2017-Jun-15 21:01N 54°50' E 018°44'714.5
2017-Jun-15 20:31N 54°45' E 018°52'713.5
2017-Jun-15 20:01N 54°38' E 018°56'714.0
2017-Jun-15 19:30N 54°33' E 018°50'714.0
2017-Jun-15 19:00N 54°32' E 018°38'4 8.4
2017-Jun-15 18:30N 54°33' E 018°31'0 0.5
2017-Jun-15 17:59N 54°33' E 018°30'0 0.0
2017-Jun-15 17:30N 54°33' E 018°30'2 3.7
2017-Jun-15 17:00N 54°32' E 018°33'612.7
2017-Jun-15 16:30N 54°32' E 018°44'714.5
2017-Jun-15 16:00N 54°37' E 018°53'714.3
2017-Jun-15 15:30N 54°44' E 018°53'816.0
2017-Jun-15 15:00N 54°50' E 018°44'816.4
2017-Jun-15 14:30N 54°56' E 018°34'1717.2
2017-Jun-15 13:30N 55°07' E 018°11'1017.2
2017-Jun-15 12:55N 55°13' E 017°56'3417.1
2017-Jun-15 10:55N 55°31' E 017°05'715.9
2017-Jun-15 10:30N 55°34' E 016°55'816.0
2017-Jun-15 10:00N 55°38' E 016°43'816.1
2017-Jun-15 09:30N 55°42' E 016°30'816.1
2017-Jun-15 09:00N 55°46' E 016°18'816.2
2017-Jun-15 08:30N 55°50' E 016°05'815.9
2017-Jun-15 08:00N 55°55' E 015°55'815.7
2017-Jun-15 07:30N 56°00' E 015°44'714.9
2017-Jun-15 07:00N 56°05' E 015°34'510.0
2017-Jun-15 06:30N 56°10' E 015°37'0 0.5
2017-Jun-15 06:00N 56°10' E 015°38'0 0.0
2017-Jun-15 05:30N 56°10' E 015°38'0 0.0
2017-Jun-15 05:00N 56°10' E 015°38'3 6.5
2017-Jun-15 04:30N 56°07' E 015°35'714.3
2017-Jun-15 04:01N 56°01' E 015°42'917.5
2017-Jun-15 03:30N 55°56' E 015°55'917.9
2017-Jun-15 03:01N 55°51' E 016°08'917.8
2017-Jun-15 02:30N 55°46' E 016°21'917.7
2017-Jun-15 02:01N 55°41' E 016°34'917.5
2017-Jun-15 01:30N 55°36' E 016°47'917.4
2017-Jun-15 01:00N 55°32' E 017°00'917.6
2017-Jun-15 00:30N 55°27' E 017°14'1017.9
2017-Jun-14 23:57N 55°22' E 017°28'1018.0
2017-Jun-14 23:24N 55°16' E 017°43'718.0
2017-Jun-14 23:00N 55°13' E 017°53'917.8
2017-Jun-14 22:30N 55°08' E 018°07'918.0
2017-Jun-14 22:01N 55°03' E 018°20'917.7
2017-Jun-14 21:31N 54°58' E 018°33'917.2
2017-Jun-14 21:00N 54°52' E 018°44'917.5
2017-Jun-14 20:30N 54°45' E 018°51'815.1
2017-Jun-14 20:01N 54°38' E 018°56'816.2
2017-Jun-14 19:31N 54°32' E 018°47'714.5
2017-Jun-14 19:01N 54°32' E 018°34'2 4.3
2017-Jun-14 18:28N 54°33' E 018°30'0 0.0
2017-Jun-14 17:58N 54°33' E 018°30'0 0.0
2017-Jun-14 17:28N 54°33' E 018°30'0 0.0
2017-Jun-14 17:00N 54°33' E 018°30'2 3.1
2017-Jun-14 16:30N 54°32' E 018°33'612.8
2017-Jun-14 16:00N 54°32' E 018°44'815.6
2017-Jun-14 15:30N 54°37' E 018°54'815.4
2017-Jun-14 15:00N 54°45' E 018°50'1817.9
2017-Jun-14 14:00N 54°59' E 018°31'918.1
2017-Jun-14 13:30N 55°04' E 018°17'917.8
2017-Jun-14 12:59N 55°09' E 018°04'2117.8
2017-Jun-14 11:48N 55°21' E 017°33'517.5
2017-Jun-14 11:30N 55°23' E 017°26'917.2
2017-Jun-14 11:00N 55°28' E 017°13'816.3
2017-Jun-14 10:30N 55°32' E 017°01'816.2
2017-Jun-14 10:00N 55°36' E 016°49'816.7
2017-Jun-14 09:30N 55°41' E 016°36'816.9
2017-Jun-14 09:00N 55°45' E 016°23'917.0
2017-Jun-14 08:30N 55°49' E 016°09'816.7
2017-Jun-14 08:00N 55°54' E 015°58'816.6
2017-Jun-14 07:30N 55°59' E 015°47'816.4
2017-Jun-14 07:00N 56°04' E 015°34'612.2
2017-Jun-14 06:31N 56°10' E 015°37'0 0.6
2017-Jun-14 06:00N 56°10' E 015°38'0 0.0
2017-Jun-14 05:30N 56°10' E 015°38'0 0.0
2017-Jun-14 05:00N 56°10' E 015°38'4 9.0
2017-Jun-14 04:31N 56°06' E 015°34'816.0
2017-Jun-14 04:01N 56°00' E 015°44'917.5
2017-Jun-14 03:31N 55°55' E 015°57'917.6
2017-Jun-14 03:00N 55°50' E 016°10'917.6
2017-Jun-14 02:30N 55°44' E 016°22'917.7
2017-Jun-14 02:00N 55°40' E 016°36'917.8
2017-Jun-14 01:30N 55°36' E 016°50'917.6
2017-Jun-14 01:00N 55°31' E 017°03'917.6
2017-Jun-14 00:30N 55°27' E 017°16'917.8
2017-Jun-14 00:00N 55°22' E 017°29'917.8
2017-Jun-13 23:30N 55°17' E 017°42'917.7
2017-Jun-13 23:01N 55°12' E 017°55'1117.7
2017-Jun-13 22:25N 55°06' E 018°10'718.0
2017-Jun-13 22:00N 55°02' E 018°21'917.5
2017-Jun-13 21:30N 54°57' E 018°33'917.2
2017-Jun-13 21:01N 54°51' E 018°44'917.4
2017-Jun-13 20:31N 54°45' E 018°55'714.7
2017-Jun-13 20:01N 54°38' E 018°56'815.3
2017-Jun-13 19:30N 54°32' E 018°48'714.5
2017-Jun-13 19:01N 54°32' E 018°36'3 6.2
2017-Jun-13 18:31N 54°33' E 018°30'0 0.0
2017-Jun-13 17:58N 54°33' E 018°30'0 0.0
2017-Jun-13 17:28N 54°33' E 018°30'0 0.0
2017-Jun-13 17:01N 54°33' E 018°30'2 3.4
2017-Jun-13 16:31N 54°32' E 018°33'713.1
2017-Jun-13 16:00N 54°32' E 018°44'917.0
2017-Jun-13 15:30N 54°38' E 018°55'816.1
2017-Jun-13 15:00N 54°46' E 018°50'1918.7
2017-Jun-13 14:00N 55°00' E 018°29'1118.6
2017-Jun-13 13:24N 55°06' E 018°12'5418.2
2017-Jun-13 10:26N 55°35' E 016°52'818.2
2017-Jun-13 10:00N 55°40' E 016°40'918.3
2017-Jun-13 09:30N 55°45' E 016°27'918.1
2017-Jun-13 09:00N 55°50' E 016°14'917.8
2017-Jun-13 08:30N 55°55' E 016°01'917.7
2017-Jun-13 08:00N 55°59' E 015°47'917.1
2017-Jun-13 07:30N 56°04' E 015°34'611.5
2017-Jun-13 07:01N 56°10' E 015°38'0 0.7
2017-Jun-13 06:30N 56°10' E 015°38'0 0.0
2017-Jun-13 05:57N 56°10' E 015°38'0 0.0
2017-Jun-13 05:30N 56°10' E 015°38'0 0.0
2017-Jun-13 05:00N 56°10' E 015°38'5 9.0
2017-Jun-13 04:30N 56°06' E 015°34'10914.4
2017-Jun-12 20:58N 55°04' E 018°14'614.1
2017-Jun-12 20:30N 55°01' E 018°23'714.4
2017-Jun-12 20:00N 54°57' E 018°34'714.8
2017-Jun-12 19:31N 54°52' E 018°42'714.7
2017-Jun-12 19:00N 54°46' E 018°51'714.6
2017-Jun-12 18:31N 54°40' E 018°58'815.6
2017-Jun-12 18:00N 54°33' E 018°52'713.1
2017-Jun-12 17:30N 54°32' E 018°41'611.2
2017-Jun-12 17:01N 54°32' E 018°31'1 1.0
2017-Jun-12 16:28N 54°33' E 018°30'0 0.0
2017-Jun-12 15:58N 54°33' E 018°30'0 0.0
2017-Jun-12 15:28N 54°33' E 018°30'0 0.0
2017-Jun-12 14:58N 54°33' E 018°30'0 0.0
2017-Jun-12 14:28N 54°33' E 018°30'  

Dump ship's entire track history